createdAt,value
2019-03-30T00:00:05.700Z,0.00
2019-03-30T00:01:05.683Z,0.00
2019-03-30T00:02:05.696Z,0.00
2019-03-30T00:03:05.670Z,0.00
2019-03-30T00:04:05.662Z,0.00
2019-03-30T00:05:05.647Z,0.00
2019-03-30T00:06:05.632Z,0.00
2019-03-30T00:07:05.637Z,0.00
2019-03-30T00:08:05.616Z,0.00
2019-03-30T00:09:05.604Z,0.00
2019-03-30T00:10:05.597Z,0.00
2019-03-30T00:11:05.585Z,0.00
2019-03-30T00:12:05.610Z,0.00
2019-03-30T00:13:05.555Z,0.00
2019-03-30T00:14:05.569Z,0.00
2019-03-30T00:15:05.543Z,0.00
2019-03-30T00:16:05.526Z,0.00
2019-03-30T00:17:05.517Z,0.00
2019-03-30T00:18:05.604Z,0.00
2019-03-30T00:19:05.494Z,0.00
2019-03-30T00:20:05.493Z,0.00
2019-03-30T00:21:05.475Z,0.00
2019-03-30T00:22:05.476Z,0.00
2019-03-30T00:23:05.453Z,0.00
2019-03-30T00:24:05.469Z,0.00
2019-03-30T00:25:05.435Z,0.00
2019-03-30T00:26:05.417Z,0.00
2019-03-30T00:27:05.405Z,0.00
2019-03-30T00:28:05.402Z,0.00
2019-03-30T00:29:05.422Z,0.00
2019-03-30T00:30:05.380Z,0.00
2019-03-30T00:31:05.376Z,0.00
2019-03-30T00:32:05.374Z,0.00
2019-03-30T00:33:05.352Z,0.00
2019-03-30T00:34:05.339Z,0.00
2019-03-30T00:35:05.352Z,0.00
2019-03-30T00:36:05.317Z,0.00
2019-03-30T00:37:05.333Z,0.00
2019-03-30T00:38:05.286Z,0.00
2019-03-30T00:39:05.280Z,0.00
2019-03-30T00:40:05.280Z,0.00
2019-03-30T00:41:05.264Z,0.00
2019-03-30T00:42:05.254Z,0.00
2019-03-30T00:43:05.261Z,0.00
2019-03-30T00:44:05.228Z,0.00
2019-03-30T00:45:05.235Z,0.00
2019-03-30T00:46:05.205Z,0.00
2019-03-30T00:47:05.198Z,0.00
2019-03-30T00:48:05.181Z,0.00
2019-03-30T00:49:05.175Z,0.00
2019-03-30T00:50:05.201Z,0.00
2019-03-30T00:51:05.151Z,0.00
2019-03-30T00:52:05.140Z,0.00
2019-03-30T00:53:05.142Z,0.00
2019-03-30T00:54:05.125Z,0.00
2019-03-30T00:55:05.118Z,0.00
2019-03-30T00:56:05.128Z,0.00
2019-03-30T00:57:05.083Z,0.00
2019-03-30T00:58:05.078Z,0.00
2019-03-30T00:59:05.063Z,0.00
2019-03-30T01:00:05.057Z,0.00
2019-03-30T01:01:05.082Z,0.00
2019-03-30T01:02:05.037Z,0.00
2019-03-30T01:03:05.030Z,0.00
2019-03-30T01:04:05.013Z,0.00
2019-03-30T01:05:05.003Z,0.00
2019-03-30T01:06:04.999Z,0.00
2019-03-30T01:07:05.006Z,0.00
2019-03-30T01:08:04.973Z,0.00
2019-03-30T01:09:04.962Z,0.00
2019-03-30T01:10:04.941Z,0.00
2019-03-30T01:11:04.962Z,0.00
2019-03-30T01:12:04.925Z,0.00
2019-03-30T01:13:04.918Z,0.00
2019-03-30T01:14:04.907Z,0.00
2019-03-30T01:15:04.904Z,0.00
2019-03-30T01:16:04.899Z,0.00
2019-03-30T01:17:04.887Z,0.00
2019-03-30T01:18:04.861Z,0.00
2019-03-30T01:19:04.847Z,0.00
2019-03-30T01:20:04.840Z,0.00
2019-03-30T01:21:04.859Z,0.00
2019-03-30T01:22:04.822Z,0.00
2019-03-30T01:23:04.811Z,0.00
2019-03-30T01:24:04.799Z,0.00
2019-03-30T01:25:04.789Z,0.00
2019-03-30T01:26:04.791Z,0.00
2019-03-30T01:27:04.791Z,0.00
2019-03-30T01:28:04.761Z,0.00
2019-03-30T01:29:04.739Z,0.00
2019-03-30T01:30:04.731Z,0.00
2019-03-30T01:31:04.726Z,0.00
2019-03-30T01:32:04.735Z,0.00
2019-03-30T01:33:04.698Z,0.00
2019-03-30T01:34:04.686Z,0.00
2019-03-30T01:35:04.750Z,0.00
2019-03-30T01:36:04.663Z,0.00
2019-03-30T01:37:04.693Z,0.00
2019-03-30T01:38:04.648Z,0.00
2019-03-30T01:39:04.637Z,0.00
2019-03-30T01:40:04.623Z,0.00
2019-03-30T01:41:04.616Z,0.00
2019-03-30T01:42:04.610Z,0.00
2019-03-30T01:43:04.614Z,0.00
2019-03-30T01:44:04.587Z,0.00
2019-03-30T01:45:04.574Z,0.00
2019-03-30T01:46:04.556Z,0.00
2019-03-30T01:47:04.549Z,0.00
2019-03-30T01:48:04.556Z,0.00
2019-03-30T01:49:04.550Z,0.00
2019-03-30T01:50:16.697Z,0.00
2019-03-30T01:51:05.510Z,0.00
2019-03-30T01:52:04.500Z,0.00
2019-03-30T01:53:04.484Z,0.00
2019-03-30T01:54:04.470Z,0.00
2019-03-30T01:55:04.497Z,0.00
2019-03-30T01:56:04.459Z,0.00
2019-03-30T01:57:04.440Z,0.00
2019-03-30T01:58:04.429Z,0.00
2019-03-30T01:59:04.435Z,0.00
2019-03-30T02:00:04.408Z,0.00
2019-03-30T02:01:04.402Z,0.00
2019-03-30T02:02:04.394Z,0.00
2019-03-30T02:03:04.438Z,0.00
2019-03-30T02:04:04.394Z,0.00
2019-03-30T02:05:04.357Z,0.00
2019-03-30T02:06:04.343Z,0.00
2019-03-30T02:07:04.333Z,0.00
2019-03-30T02:08:04.320Z,0.00
2019-03-30T02:09:04.343Z,0.00
2019-03-30T02:10:04.310Z,0.00
2019-03-30T02:11:04.288Z,0.00
2019-03-30T02:12:04.281Z,0.00
2019-03-30T02:13:04.279Z,0.00
2019-03-30T02:14:04.264Z,0.00
2019-03-30T02:15:04.279Z,0.00
2019-03-30T02:16:04.242Z,0.00
2019-03-30T02:17:04.223Z,0.00
2019-03-30T02:18:04.219Z,0.00
2019-03-30T02:19:04.202Z,0.00
2019-03-30T02:20:04.208Z,0.00
2019-03-30T02:21:04.188Z,0.00
2019-03-30T02:22:04.189Z,0.00
2019-03-30T02:23:04.172Z,0.00
2019-03-30T02:24:04.156Z,0.00
2019-03-30T02:25:04.164Z,0.00
2019-03-30T02:26:04.149Z,0.00
2019-03-30T02:27:04.125Z,0.00
2019-03-30T02:28:06.937Z,0.00
2019-03-30T02:29:04.104Z,0.00
2019-03-30T02:30:04.117Z,0.00
2019-03-30T02:31:04.098Z,0.00
2019-03-30T02:32:04.152Z,0.00
2019-03-30T02:33:04.066Z,0.00
2019-03-30T02:34:04.053Z,0.00
2019-03-30T02:35:04.045Z,0.00
2019-03-30T02:36:04.046Z,0.00
2019-03-30T02:37:04.022Z,0.00
2019-03-30T02:38:04.030Z,0.00
2019-03-30T02:39:03.989Z,0.00
2019-03-30T02:40:03.982Z,0.00
2019-03-30T02:41:03.980Z,0.00
2019-03-30T02:42:03.969Z,0.00
2019-03-30T02:43:03.954Z,0.00
2019-03-30T02:44:03.972Z,0.00
2019-03-30T02:45:03.936Z,0.00
2019-03-30T02:46:03.926Z,0.00
2019-03-30T02:47:03.922Z,0.00
2019-03-30T02:48:03.907Z,0.00
2019-03-30T02:49:03.892Z,0.00
2019-03-30T02:50:03.899Z,0.00
2019-03-30T02:51:03.865Z,0.00
2019-03-30T02:52:03.853Z,0.00
2019-03-30T02:53:03.853Z,0.00
2019-03-30T02:54:03.902Z,0.00
2019-03-30T02:55:03.841Z,0.00
2019-03-30T02:56:03.829Z,0.00
2019-03-30T02:57:03.809Z,0.00
2019-03-30T02:58:03.809Z,0.00
2019-03-30T02:59:03.815Z,0.00
2019-03-30T03:00:03.794Z,0.00
2019-03-30T03:01:03.786Z,0.00
2019-03-30T03:02:03.784Z,0.00
2019-03-30T03:03:03.744Z,0.00
2019-03-30T03:04:03.752Z,0.00
2019-03-30T03:05:03.735Z,0.00
2019-03-30T03:06:03.739Z,0.00
2019-03-30T03:07:03.709Z,0.00
2019-03-30T03:08:03.694Z,0.00
2019-03-30T03:09:03.684Z,0.00
2019-03-30T03:10:03.688Z,0.00
2019-03-30T03:11:04.672Z,0.00
2019-03-30T03:12:03.677Z,0.00
2019-03-30T03:13:03.702Z,0.00
2019-03-30T03:14:03.632Z,0.00
2019-03-30T03:15:03.626Z,0.00
2019-03-30T03:16:03.613Z,0.00
2019-03-30T03:17:03.626Z,0.00
2019-03-30T03:18:03.599Z,0.00
2019-03-30T03:19:03.588Z,0.00
2019-03-30T03:20:03.571Z,0.00
2019-03-30T03:21:08.032Z,0.00
2019-03-30T03:22:04.545Z,0.00
2019-03-30T03:23:03.554Z,0.00
2019-03-30T03:24:03.528Z,0.00
2019-03-30T03:25:03.531Z,0.00
2019-03-30T03:26:03.530Z,0.00
2019-03-30T03:27:03.500Z,0.00
2019-03-30T03:28:03.487Z,0.00
2019-03-30T03:29:03.483Z,0.00
2019-03-30T03:30:03.460Z,0.00
2019-03-30T03:31:03.499Z,0.00
2019-03-30T03:32:03.451Z,0.00
2019-03-30T03:33:03.617Z,0.00
2019-03-30T03:34:03.438Z,0.00
2019-03-30T03:35:03.432Z,0.00
2019-03-30T03:36:03.425Z,0.00
2019-03-30T03:37:03.417Z,0.00
2019-03-30T03:38:03.387Z,0.00
2019-03-30T03:39:03.381Z,0.00
2019-03-30T03:40:03.374Z,0.00
2019-03-30T03:41:03.366Z,0.00
2019-03-30T03:42:03.366Z,0.00
2019-03-30T03:43:03.328Z,0.00
2019-03-30T03:44:03.317Z,0.00
2019-03-30T03:45:03.317Z,0.00
2019-03-30T03:46:03.309Z,0.00
2019-03-30T03:47:03.308Z,0.00
2019-03-30T03:48:03.282Z,0.00
2019-03-30T03:49:03.308Z,0.00
2019-03-30T03:50:03.266Z,0.00
2019-03-30T03:51:03.371Z,0.00
2019-03-30T03:52:03.251Z,0.00
2019-03-30T03:53:03.238Z,0.00
2019-03-30T03:54:03.241Z,0.00
2019-03-30T03:55:03.204Z,0.00
2019-03-30T03:56:03.193Z,0.00
2019-03-30T03:57:03.256Z,0.00
2019-03-30T03:58:03.184Z,0.00
2019-03-30T03:59:03.192Z,0.00
2019-03-30T04:00:03.215Z,0.00
2019-03-30T04:01:03.172Z,0.00
2019-03-30T04:02:03.147Z,0.00
2019-03-30T04:03:03.149Z,0.00
2019-03-30T04:04:03.127Z,0.00
2019-03-30T04:05:03.124Z,0.00
2019-03-30T04:06:03.096Z,0.00
2019-03-30T04:07:03.102Z,0.00
2019-03-30T04:08:03.078Z,0.00
2019-03-30T04:09:03.069Z,0.00
2019-03-30T04:10:03.102Z,0.00
2019-03-30T04:11:03.063Z,0.00
2019-03-30T04:12:03.041Z,0.00
2019-03-30T04:13:06.781Z,0.00
2019-03-30T04:14:03.021Z,0.00
2019-03-30T04:15:02.999Z,0.00
2019-03-30T04:16:03.021Z,0.00
2019-03-30T04:17:02.992Z,0.00
2019-03-30T04:18:03.003Z,0.00
2019-03-30T04:19:02.962Z,0.00
2019-03-30T04:20:02.952Z,0.00
2019-03-30T04:21:02.983Z,0.00
2019-03-30T04:22:02.941Z,0.00
2019-03-30T04:23:02.931Z,0.00
2019-03-30T04:24:02.915Z,0.00
2019-03-30T04:25:02.907Z,0.00
2019-03-30T04:26:02.914Z,0.00
2019-03-30T04:27:02.877Z,0.00
2019-03-30T04:28:02.869Z,0.00
2019-03-30T04:29:02.917Z,0.00
2019-03-30T04:30:02.865Z,0.00
2019-03-30T04:31:02.862Z,0.00
2019-03-30T04:32:02.838Z,0.00
2019-03-30T04:33:02.834Z,0.00
2019-03-30T04:34:02.809Z,0.00
2019-03-30T04:35:02.800Z,0.00
2019-03-30T04:36:02.787Z,5.62
2019-03-30T04:37:02.814Z,5.62
2019-03-30T04:38:02.772Z,5.62
2019-03-30T04:39:02.755Z,5.62
2019-03-30T04:40:02.752Z,5.62
2019-03-30T04:41:02.736Z,5.62
2019-03-30T04:42:02.732Z,5.62
2019-03-30T04:43:02.748Z,5.62
2019-03-30T04:44:02.715Z,5.62
2019-03-30T04:45:02.693Z,5.62
2019-03-30T04:46:02.680Z,5.62
2019-03-30T04:47:02.707Z,11.25
2019-03-30T04:48:02.662Z,11.25
2019-03-30T04:49:02.658Z,11.25
2019-03-30T04:50:02.654Z,11.25
2019-03-30T04:51:02.635Z,16.88
2019-03-30T04:52:02.618Z,16.88
2019-03-30T04:53:02.633Z,16.88
2019-03-30T04:54:02.603Z,16.88
2019-03-30T04:55:02.594Z,22.50
2019-03-30T04:56:02.587Z,22.50
2019-03-30T04:57:02.570Z,28.12
2019-03-30T04:58:02.596Z,28.12
2019-03-30T04:59:02.545Z,33.75
2019-03-30T05:00:02.543Z,33.75
2019-03-30T05:01:02.533Z,39.38
2019-03-30T05:02:02.529Z,39.38
2019-03-30T05:03:02.513Z,39.38
2019-03-30T05:04:02.521Z,45.00
2019-03-30T05:05:02.486Z,45.00
2019-03-30T05:06:02.478Z,50.62
2019-03-30T05:07:02.472Z,50.62
2019-03-30T05:08:02.493Z,56.25
2019-03-30T05:09:02.449Z,56.25
2019-03-30T05:10:02.433Z,56.25
2019-03-30T05:11:02.423Z,61.88
2019-03-30T05:12:02.415Z,61.88
2019-03-30T05:13:02.413Z,67.50
2019-03-30T05:14:02.419Z,73.12
2019-03-30T05:15:02.390Z,73.12
2019-03-30T05:16:02.378Z,78.75
2019-03-30T05:17:02.370Z,84.38
2019-03-30T05:18:02.360Z,90.00
2019-03-30T05:19:02.362Z,95.62
2019-03-30T05:20:02.335Z,95.62
2019-03-30T05:21:02.328Z,101.25
2019-03-30T05:22:11.973Z,106.88
2019-03-30T05:23:03.298Z,112.50
2019-03-30T05:24:02.319Z,112.50
2019-03-30T05:25:02.304Z,118.12
2019-03-30T05:26:02.329Z,123.75
2019-03-30T05:27:02.267Z,123.75
2019-03-30T05:28:02.255Z,129.38
2019-03-30T05:29:02.242Z,140.62
2019-03-30T05:30:02.253Z,140.62
2019-03-30T05:31:02.232Z,146.25
2019-03-30T05:32:02.208Z,146.25
2019-03-30T05:33:06.005Z,151.88
2019-03-30T05:34:02.189Z,157.50
2019-03-30T05:35:02.203Z,157.50
2019-03-30T05:36:02.187Z,157.50
2019-03-30T05:37:02.159Z,163.12
2019-03-30T05:38:02.142Z,163.12
2019-03-30T05:39:02.146Z,168.75
2019-03-30T05:40:02.157Z,168.75
2019-03-30T05:41:02.116Z,168.75
2019-03-30T05:42:02.099Z,168.75
2019-03-30T05:43:02.105Z,174.38
2019-03-30T05:44:02.077Z,185.62
2019-03-30T05:45:02.098Z,208.12
2019-03-30T05:46:02.082Z,225.00
2019-03-30T05:47:02.051Z,253.12
2019-03-30T05:48:02.040Z,258.75
2019-03-30T05:49:02.027Z,258.75
2019-03-30T05:50:02.014Z,253.12
2019-03-30T05:51:02.023Z,264.38
2019-03-30T05:52:01.993Z,270.00
2019-03-30T05:53:01.995Z,253.12
2019-03-30T05:54:01.979Z,213.75
2019-03-30T05:55:01.969Z,196.88
2019-03-30T05:56:01.971Z,196.88
2019-03-30T05:57:01.965Z,225.00
2019-03-30T05:58:01.936Z,343.12
2019-03-30T05:59:01.929Z,354.38
2019-03-30T06:00:01.917Z,382.50
2019-03-30T06:01:01.910Z,405.00
2019-03-30T06:02:01.918Z,421.88
2019-03-30T06:03:01.894Z,427.50
2019-03-30T06:04:01.871Z,450.00
2019-03-30T06:05:03.686Z,466.88
2019-03-30T06:06:01.851Z,466.88
2019-03-30T06:07:01.873Z,478.12
2019-03-30T06:08:01.830Z,489.38
2019-03-30T06:09:01.816Z,506.25
2019-03-30T06:10:01.804Z,523.12
2019-03-30T06:11:11.166Z,528.75
2019-03-30T06:12:01.785Z,517.50
2019-03-30T06:13:01.798Z,506.25
2019-03-30T06:14:01.810Z,517.50
2019-03-30T06:15:01.764Z,540.00
2019-03-30T06:16:01.751Z,585.00
2019-03-30T06:17:01.739Z,635.62
2019-03-30T06:18:01.756Z,641.25
2019-03-30T06:19:01.709Z,652.50
2019-03-30T06:20:01.704Z,686.25
2019-03-30T06:21:01.719Z,703.12
2019-03-30T06:22:01.678Z,725.62
2019-03-30T06:23:01.670Z,731.25
2019-03-30T06:24:01.662Z,720.00
2019-03-30T06:25:01.654Z,753.75
2019-03-30T06:26:01.648Z,776.25
2019-03-30T06:27:01.657Z,798.75
2019-03-30T06:28:01.622Z,815.62
2019-03-30T06:29:01.614Z,815.62
2019-03-30T06:30:01.600Z,731.25
2019-03-30T06:31:01.582Z,781.88
2019-03-30T06:32:01.571Z,810.00
2019-03-30T06:33:01.583Z,815.62
2019-03-30T06:34:01.547Z,838.12
2019-03-30T06:35:01.546Z,855.00
2019-03-30T06:36:01.554Z,894.38
2019-03-30T06:37:01.524Z,945.00
2019-03-30T06:38:01.530Z,821.25
2019-03-30T06:39:01.497Z,815.62
2019-03-30T06:40:01.496Z,821.25
2019-03-30T06:41:01.485Z,939.38
2019-03-30T06:42:01.476Z,961.88
2019-03-30T06:43:01.487Z,967.50
2019-03-30T06:44:01.444Z,967.50
2019-03-30T06:45:01.429Z,956.25
2019-03-30T06:46:01.420Z,883.12
2019-03-30T06:47:01.421Z,877.50
2019-03-30T06:48:01.409Z,843.75
2019-03-30T06:49:01.838Z,793.12
2019-03-30T06:50:01.389Z,821.25
2019-03-30T06:51:01.371Z,883.12
2019-03-30T06:52:01.366Z,928.12
2019-03-30T06:53:01.348Z,905.62
2019-03-30T06:54:01.364Z,956.25
2019-03-30T06:55:01.334Z,1023.75
2019-03-30T06:56:01.329Z,1203.75
2019-03-30T06:57:01.313Z,1215.00
2019-03-30T06:58:01.298Z,1237.50
2019-03-30T06:59:01.290Z,1293.75
2019-03-30T07:00:01.297Z,1316.25
2019-03-30T07:01:01.268Z,1299.38
2019-03-30T07:02:01.257Z,1372.50
2019-03-30T07:03:01.253Z,1366.88
2019-03-30T07:04:01.253Z,1355.62
2019-03-30T07:05:01.226Z,1372.50
2019-03-30T07:06:01.209Z,1389.38
2019-03-30T07:07:01.205Z,1366.88
2019-03-30T07:08:01.190Z,1355.62
2019-03-30T07:09:01.211Z,1338.75
2019-03-30T07:10:01.191Z,1389.38
2019-03-30T07:11:01.173Z,1383.75
2019-03-30T07:12:01.144Z,1372.50
2019-03-30T07:13:01.141Z,1355.62
2019-03-30T07:14:01.127Z,1440.00
2019-03-30T07:15:01.135Z,1479.38
2019-03-30T07:16:01.107Z,1485.00
2019-03-30T07:17:01.827Z,1496.25
2019-03-30T07:18:01.093Z,1524.38
2019-03-30T07:19:01.072Z,1546.88
2019-03-30T07:20:01.086Z,1490.62
2019-03-30T07:21:01.075Z,1546.88
2019-03-30T07:22:01.050Z,1614.38
2019-03-30T07:23:11.923Z,1625.62
2019-03-30T07:24:02.016Z,1631.25
2019-03-30T07:25:01.021Z,1625.62
2019-03-30T07:26:01.011Z,1665.00
2019-03-30T07:27:00.994Z,1631.25
2019-03-30T07:28:00.981Z,1608.75
2019-03-30T07:29:00.966Z,1698.75
2019-03-30T07:30:00.962Z,1681.88
2019-03-30T07:31:00.967Z,1726.88
2019-03-30T07:32:00.937Z,1766.25
2019-03-30T07:33:00.928Z,1794.38
2019-03-30T07:34:00.919Z,1794.38
2019-03-30T07:35:00.902Z,1743.75
2019-03-30T07:36:00.925Z,1783.12
2019-03-30T07:37:00.883Z,1760.62
2019-03-30T07:38:00.876Z,1760.62
2019-03-30T07:39:00.878Z,1783.12
2019-03-30T07:40:00.849Z,1822.50
2019-03-30T07:41:00.855Z,1839.38
2019-03-30T07:42:00.857Z,1816.88
2019-03-30T07:43:00.820Z,1861.88
2019-03-30T07:44:00.810Z,1901.25
2019-03-30T07:45:00.805Z,1873.12
2019-03-30T07:46:00.787Z,1929.38
2019-03-30T07:47:00.793Z,1957.50
2019-03-30T07:48:00.765Z,1957.50
2019-03-30T07:49:00.775Z,1957.50
2019-03-30T07:50:00.750Z,1951.88
2019-03-30T07:51:00.737Z,1985.62
2019-03-30T07:52:00.747Z,1985.62
2019-03-30T07:53:00.713Z,2047.50
2019-03-30T07:54:00.703Z,2053.12
2019-03-30T07:55:00.698Z,2041.88
2019-03-30T07:56:08.146Z,2098.12
2019-03-30T07:57:07.463Z,2160.00
2019-03-30T07:58:01.710Z,2199.38
2019-03-30T07:59:00.654Z,2143.12
2019-03-30T08:00:00.644Z,2233.12
2019-03-30T08:01:00.626Z,2261.25
2019-03-30T08:02:00.616Z,2058.75
2019-03-30T08:03:00.633Z,2176.88
2019-03-30T08:04:00.613Z,2053.12
2019-03-30T08:05:00.595Z,2193.75
2019-03-30T08:06:00.579Z,2216.25
2019-03-30T08:07:00.562Z,2266.88
2019-03-30T08:08:00.553Z,2227.50
2019-03-30T08:09:00.559Z,2306.25
2019-03-30T08:10:00.538Z,2345.62
2019-03-30T08:11:00.525Z,2323.12
2019-03-30T08:12:00.514Z,2328.75
2019-03-30T08:13:00.515Z,2345.62
2019-03-30T08:14:00.523Z,2334.38
2019-03-30T08:15:00.480Z,2345.62
2019-03-30T08:16:00.478Z,2356.88
2019-03-30T08:17:00.474Z,2328.75
2019-03-30T08:18:00.460Z,2458.12
2019-03-30T08:19:00.479Z,2401.88
2019-03-30T08:20:00.442Z,2413.12
2019-03-30T08:21:00.421Z,2401.88
2019-03-30T08:22:00.417Z,2289.38
2019-03-30T08:23:00.416Z,2334.38
2019-03-30T08:24:00.423Z,2340.00
2019-03-30T08:25:00.403Z,2345.62
2019-03-30T08:26:00.398Z,2430.00
2019-03-30T08:27:00.394Z,2385.00
2019-03-30T08:28:00.351Z,2216.25
2019-03-30T08:29:00.339Z,2261.25
2019-03-30T08:30:00.399Z,2272.50
2019-03-30T08:31:00.339Z,2244.38
2019-03-30T08:32:00.340Z,2278.12
2019-03-30T08:33:00.296Z,2188.12
2019-03-30T08:34:00.291Z,2373.75
2019-03-30T08:35:00.411Z,2452.50
2019-03-30T08:36:00.303Z,2407.50
2019-03-30T08:37:00.271Z,2469.38
2019-03-30T08:38:00.254Z,2463.75
2019-03-30T08:39:00.247Z,2508.75
2019-03-30T08:40:00.432Z,2424.38
2019-03-30T08:41:00.255Z,2463.75
2019-03-30T08:42:00.207Z,2334.38
2019-03-30T08:43:00.218Z,2536.88
2019-03-30T08:44:00.195Z,2688.75
2019-03-30T08:45:00.362Z,2508.75
2019-03-30T08:46:00.198Z,2610.00
2019-03-30T08:47:00.176Z,2756.25
2019-03-30T08:48:00.141Z,2649.38
2019-03-30T08:49:00.138Z,2542.50
2019-03-30T08:50:00.356Z,2587.50
2019-03-30T08:51:00.106Z,2610.00
2019-03-30T08:52:00.117Z,2503.12
2019-03-30T08:53:00.098Z,2643.75
2019-03-30T08:54:00.101Z,2615.62
2019-03-30T08:55:00.149Z,2610.00
2019-03-30T08:56:00.065Z,2733.75
2019-03-30T08:57:00.053Z,2750.62
2019-03-30T08:58:00.046Z,2778.75
2019-03-30T08:59:00.050Z,2913.75
2019-03-30T09:00:00.024Z,2947.50
2019-03-30T09:01:00.006Z,2941.88
2019-03-30T09:01:59.998Z,2739.38
2019-03-30T09:02:59.993Z,2761.88
2019-03-30T09:04:00.018Z,2790.00
2019-03-30T09:04:59.981Z,2688.75
2019-03-30T09:05:59.969Z,2593.12
2019-03-30T09:06:59.950Z,2570.62
2019-03-30T09:07:59.945Z,2694.38
2019-03-30T09:08:59.951Z,2767.50
2019-03-30T09:09:59.941Z,2840.62
2019-03-30T09:10:59.919Z,2812.50
2019-03-30T09:11:59.896Z,2806.88
2019-03-30T09:12:59.888Z,2683.12
2019-03-30T09:13:59.894Z,2913.75
2019-03-30T09:14:59.871Z,2953.12
2019-03-30T09:15:59.862Z,3183.75
2019-03-30T09:16:59.861Z,2722.50
2019-03-30T09:17:59.855Z,2941.88
2019-03-30T09:18:59.854Z,2632.50
2019-03-30T09:19:59.814Z,2896.88
2019-03-30T09:20:59.812Z,2711.25
2019-03-30T09:21:59.804Z,2671.88
2019-03-30T09:22:59.784Z,2919.38
2019-03-30T09:24:09.651Z,3195.00
2019-03-30T09:25:00.806Z,2716.88
2019-03-30T09:25:59.759Z,2604.38
2019-03-30T09:26:59.754Z,2913.75
2019-03-30T09:27:59.745Z,2778.75
2019-03-30T09:28:59.737Z,2925.00
2019-03-30T09:29:59.721Z,3048.75
2019-03-30T09:30:59.729Z,3071.25
2019-03-30T09:32:13.329Z,3144.38
2019-03-30T09:33:00.685Z,3003.75
2019-03-30T09:33:59.680Z,3048.75
2019-03-30T09:34:59.672Z,2975.62
2019-03-30T09:35:59.696Z,3116.25
2019-03-30T09:36:59.652Z,3043.12
2019-03-30T09:37:59.634Z,3133.12
2019-03-30T09:38:59.633Z,3285.00
2019-03-30T09:39:59.622Z,3341.25
2019-03-30T09:40:59.619Z,3200.62
2019-03-30T09:41:59.632Z,3262.50
2019-03-30T09:42:59.605Z,3335.62
2019-03-30T09:43:59.573Z,3346.88
2019-03-30T09:44:59.568Z,3335.62
2019-03-30T09:45:59.555Z,3335.62
2019-03-30T09:46:59.575Z,3313.12
2019-03-30T09:47:59.542Z,2930.62
2019-03-30T09:48:59.538Z,2880.00
2019-03-30T09:50:02.382Z,2846.25
2019-03-30T09:50:59.508Z,2756.25
2019-03-30T09:51:59.544Z,3037.50
2019-03-30T09:52:59.502Z,2806.88
2019-03-30T09:53:59.483Z,2700.00
2019-03-30T09:54:59.472Z,3076.88
2019-03-30T09:55:59.462Z,2857.50
2019-03-30T09:56:59.458Z,2761.88
2019-03-30T09:57:59.475Z,1906.88
2019-03-30T09:58:59.440Z,2790.00
2019-03-30T09:59:59.435Z,2621.25
2019-03-30T10:00:59.420Z,2446.88
2019-03-30T10:01:59.406Z,2880.00
2019-03-30T10:03:00.279Z,3352.50
2019-03-30T10:03:59.413Z,3268.12
2019-03-30T10:05:00.403Z,2210.62
2019-03-30T10:05:59.449Z,2638.12
2019-03-30T10:06:59.360Z,2610.00
2019-03-30T10:07:59.388Z,2733.75
2019-03-30T10:08:59.394Z,2688.75
2019-03-30T10:09:59.337Z,2874.38
2019-03-30T10:10:59.324Z,2930.62
2019-03-30T10:11:59.314Z,3082.50
2019-03-30T10:12:59.301Z,3172.50
2019-03-30T10:13:59.287Z,3217.50
2019-03-30T10:14:59.304Z,3420.00
2019-03-30T10:15:59.275Z,3330.00
2019-03-30T10:16:59.251Z,3414.38
2019-03-30T10:17:59.292Z,3515.62
2019-03-30T10:18:59.314Z,3442.50
2019-03-30T10:20:04.747Z,2936.25
2019-03-30T10:21:00.230Z,3279.38
2019-03-30T10:21:59.213Z,3273.75
2019-03-30T10:22:59.215Z,3150.00
2019-03-30T10:24:00.198Z,3071.25
2019-03-30T10:24:59.234Z,3273.75
2019-03-30T10:25:59.177Z,3380.62
2019-03-30T10:26:59.155Z,3352.50
2019-03-30T10:27:59.157Z,3251.25
2019-03-30T10:28:59.141Z,3054.38
2019-03-30T10:29:59.127Z,3048.75
2019-03-30T10:30:59.117Z,3206.25
2019-03-30T10:32:00.004Z,2908.12
2019-03-30T10:32:59.124Z,2970.00
2019-03-30T10:33:59.144Z,2638.12
2019-03-30T10:34:59.104Z,2300.62
2019-03-30T10:35:59.072Z,2947.50
2019-03-30T10:36:59.047Z,3155.62
2019-03-30T10:37:59.055Z,3116.25
2019-03-30T10:38:59.038Z,2733.75
2019-03-30T10:39:59.042Z,3408.75
2019-03-30T10:40:59.033Z,3076.88
2019-03-30T10:41:59.000Z,3138.75
2019-03-30T10:42:58.994Z,3352.50
2019-03-30T10:43:59.000Z,3127.50
2019-03-30T10:44:58.986Z,2356.88
2019-03-30T10:45:58.986Z,3335.62
2019-03-30T10:46:58.960Z,2688.75
2019-03-30T10:47:58.947Z,3352.50
2019-03-30T10:48:58.941Z,3442.50
2019-03-30T10:49:59.371Z,3487.50
2019-03-30T10:50:58.925Z,3521.25
2019-03-30T10:51:58.919Z,3555.00
2019-03-30T10:52:58.903Z,3510.00
2019-03-30T10:53:58.901Z,3521.25
2019-03-30T10:54:58.933Z,3279.38
2019-03-30T10:55:58.903Z,3436.88
2019-03-30T10:56:58.863Z,3251.25
2019-03-30T10:57:59.080Z,3510.00
2019-03-30T10:58:58.841Z,3459.38
2019-03-30T10:59:58.859Z,3577.50
2019-03-30T11:00:58.840Z,3521.25
2019-03-30T11:01:58.805Z,3380.62
2019-03-30T11:02:58.807Z,3639.38
2019-03-30T11:03:58.796Z,3465.00
2019-03-30T11:04:58.795Z,3335.62
2019-03-30T11:05:58.801Z,3076.88
2019-03-30T11:06:58.769Z,2992.50
2019-03-30T11:07:58.742Z,3346.88
2019-03-30T11:08:58.736Z,3268.12
2019-03-30T11:09:58.728Z,3150.00
2019-03-30T11:10:58.818Z,3015.00
2019-03-30T11:11:58.722Z,3330.00
2019-03-30T11:12:58.694Z,3375.00
2019-03-30T11:13:58.684Z,3301.88
2019-03-30T11:14:58.681Z,3296.25
2019-03-30T11:15:58.674Z,3127.50
2019-03-30T11:16:58.701Z,3268.12
2019-03-30T11:17:58.667Z,3335.62
2019-03-30T11:18:58.657Z,3431.25
2019-03-30T11:19:58.625Z,3661.88
2019-03-30T11:20:58.617Z,3600.00
2019-03-30T11:21:58.746Z,3498.75
2019-03-30T11:22:58.605Z,3673.12
2019-03-30T11:23:58.623Z,3386.25
2019-03-30T11:25:07.172Z,3425.62
2019-03-30T11:25:59.571Z,3611.25
2019-03-30T11:26:58.918Z,3493.12
2019-03-30T11:27:58.552Z,3510.00
2019-03-30T11:28:59.344Z,3408.75
2019-03-30T11:29:58.564Z,3656.25
2019-03-30T11:30:58.565Z,3600.00
2019-03-30T11:31:59.561Z,3600.00
2019-03-30T11:32:58.535Z,3549.38
2019-03-30T11:33:58.509Z,3650.62
2019-03-30T11:34:58.497Z,3667.50
2019-03-30T11:35:58.481Z,3504.38
2019-03-30T11:36:59.331Z,3605.62
2019-03-30T11:37:58.509Z,3650.62
2019-03-30T11:38:58.440Z,3487.50
2019-03-30T11:39:58.437Z,3543.75
2019-03-30T11:40:58.453Z,3493.12
2019-03-30T11:41:58.444Z,3538.12
2019-03-30T11:42:58.428Z,3476.25
2019-03-30T11:43:58.425Z,3335.62
2019-03-30T11:44:58.380Z,3515.62
2019-03-30T11:45:58.375Z,3521.25
2019-03-30T11:46:58.369Z,3481.88
2019-03-30T11:47:58.376Z,3538.12
2019-03-30T11:48:58.356Z,3600.00
2019-03-30T11:49:58.349Z,3622.50
2019-03-30T11:50:59.333Z,3628.12
2019-03-30T11:51:58.349Z,3549.38
2019-03-30T11:52:58.366Z,3436.88
2019-03-30T11:53:58.831Z,3504.38
2019-03-30T11:54:58.330Z,3690.00
2019-03-30T11:55:58.296Z,3667.50
2019-03-30T11:57:07.911Z,3616.88
2019-03-30T11:57:58.250Z,3577.50
2019-03-30T11:58:58.269Z,3504.38
2019-03-30T11:59:58.260Z,3639.38
2019-03-30T12:00:58.264Z,3633.75
2019-03-30T12:01:58.230Z,3515.62
2019-03-30T12:02:58.276Z,3549.38
2019-03-30T12:03:58.202Z,3673.12
2019-03-30T12:04:58.195Z,3605.62
2019-03-30T12:05:58.201Z,3526.88
2019-03-30T12:06:58.176Z,3594.38
2019-03-30T12:07:58.173Z,3532.50
2019-03-30T12:08:58.151Z,3487.50
2019-03-30T12:09:58.149Z,3442.50
2019-03-30T12:10:58.182Z,3481.88
2019-03-30T12:11:58.135Z,3538.12
2019-03-30T12:12:58.139Z,3487.50
2019-03-30T12:13:58.129Z,3397.50
2019-03-30T12:14:58.097Z,3363.75
2019-03-30T12:15:58.090Z,3555.00
2019-03-30T12:16:58.166Z,3504.38
2019-03-30T12:17:58.077Z,3487.50
2019-03-30T12:18:58.318Z,3628.12
2019-03-30T12:19:58.065Z,3633.75
2019-03-30T12:20:58.048Z,3667.50
2019-03-30T12:21:58.053Z,3661.88
2019-03-30T12:22:58.022Z,3510.00
2019-03-30T12:23:58.076Z,3498.75
2019-03-30T12:24:58.085Z,3465.00
2019-03-30T12:25:57.999Z,3296.25
2019-03-30T12:26:58.010Z,3391.88
2019-03-30T12:27:58.002Z,3560.62
2019-03-30T12:28:57.972Z,3639.38
2019-03-30T12:29:57.955Z,3560.62
2019-03-30T12:30:57.963Z,3538.12
2019-03-30T12:31:57.975Z,3616.88
2019-03-30T12:32:57.958Z,3645.00
2019-03-30T12:33:57.958Z,3684.38
2019-03-30T12:34:57.921Z,3605.62
2019-03-30T12:35:58.414Z,3650.62